createdAt,value
2023-01-22T00:02:58.613Z,90.47
2023-01-22T00:08:00.037Z,90.12
2023-01-22T00:13:01.397Z,91.12
2023-01-22T00:18:02.720Z,90.55
2023-01-22T00:23:04.093Z,91.07
2023-01-22T00:28:06.086Z,90.76
2023-01-22T00:33:07.400Z,90.55
2023-01-22T00:38:09.974Z,90.40
2023-01-22T00:43:11.304Z,90.21
2023-01-22T00:48:12.669Z,90.28
2023-01-22T00:53:13.993Z,90.61
2023-01-22T00:58:15.311Z,90.55
2023-01-22T01:03:32.411Z,90.10
2023-01-22T01:08:35.238Z,90.78
2023-01-22T01:13:42.675Z,90.66
2023-01-22T01:18:44.438Z,90.76
2023-01-22T01:23:46.356Z,90.25
2023-01-22T01:28:47.810Z,90.89
2023-01-22T01:33:49.603Z,90.55
2023-01-22T01:38:51.370Z,90.77
2023-01-22T01:44:09.022Z,91.57
2023-01-22T01:49:26.512Z,91.18
2023-01-22T01:54:28.787Z,91.04
2023-01-22T01:59:33.360Z,91.20
2023-01-22T02:04:34.876Z,91.10
2023-01-22T02:09:36.248Z,91.05
2023-01-22T02:14:40.186Z,91.62
2023-01-22T02:19:42.110Z,91.11
2023-01-22T02:24:43.444Z,91.74
2023-01-22T02:29:45.109Z,91.35
2023-01-22T02:34:46.540Z,92.29
2023-01-22T02:39:47.953Z,91.50
2023-01-22T02:44:50.100Z,91.45
2023-01-22T02:49:51.596Z,91.63
2023-01-22T02:54:53.002Z,91.32
2023-01-22T02:59:54.341Z,90.86
2023-01-22T03:05:03.148Z,92.11
2023-01-22T03:10:04.695Z,91.90
2023-01-22T03:15:24.846Z,91.66
2023-01-22T03:20:45.020Z,91.84
2023-01-22T03:25:46.480Z,91.48
2023-01-22T03:30:48.251Z,91.80
2023-01-22T03:35:50.077Z,91.68
2023-01-22T03:41:00.420Z,91.06
2023-01-22T03:46:12.954Z,91.58
2023-01-22T03:51:17.508Z,90.87
2023-01-22T03:56:20.861Z,91.55
2023-01-22T04:01:24.409Z,91.16
2023-01-22T04:06:26.936Z,91.37
2023-01-22T04:11:28.431Z,90.59
2023-01-22T04:16:30.044Z,91.46
2023-01-22T04:22:02.310Z,91.55
2023-01-22T04:27:04.140Z,90.80
2023-01-22T04:32:05.617Z,90.76
2023-01-22T04:37:39.021Z,90.95
2023-01-22T04:42:40.497Z,91.22
2023-01-22T04:47:46.023Z,91.28
2023-01-22T04:52:50.850Z,91.08
2023-01-22T04:57:56.490Z,91.19
2023-01-22T05:03:01.692Z,91.07
2023-01-22T05:08:04.255Z,90.61
2023-01-22T05:13:09.679Z,90.88
2023-01-22T05:18:12.736Z,90.87
2023-01-22T05:23:21.624Z,90.92
2023-01-22T05:28:23.042Z,90.41
2023-01-22T05:33:35.567Z,90.87
2023-01-22T05:38:38.592Z,91.10
2023-01-22T05:43:40.284Z,90.61
2023-01-22T05:48:45.506Z,91.26
2023-01-22T05:53:50.969Z,91.06
2023-01-22T05:58:52.702Z,90.97
2023-01-22T06:03:54.233Z,91.30
2023-01-22T06:08:59.634Z,90.94
2023-01-22T06:14:06.395Z,91.73
2023-01-22T06:19:08.297Z,91.62
2023-01-22T06:24:17.205Z,91.54
2023-01-22T06:29:18.745Z,91.15
2023-01-22T06:34:20.528Z,91.48
2023-01-22T06:39:21.947Z,90.51
2023-01-22T06:44:37.888Z,91.16
2023-01-22T06:49:39.352Z,90.88
2023-01-22T06:54:40.746Z,90.40
2023-01-22T06:59:42.410Z,90.87
2023-01-22T07:04:43.755Z,91.14
2023-01-22T07:09:45.132Z,91.10
2023-01-22T07:14:46.456Z,91.39
2023-01-22T07:19:47.774Z,91.59
2023-01-22T07:24:49.095Z,91.28
2023-01-22T07:29:50.417Z,91.94
2023-01-22T07:34:51.877Z,91.78
2023-01-22T07:39:53.698Z,91.65
2023-01-22T07:44:55.048Z,91.15
2023-01-22T07:49:56.376Z,91.41
2023-01-22T07:54:57.686Z,91.47
2023-01-22T07:59:59.015Z,91.86
2023-01-22T08:05:00.386Z,91.34
2023-01-22T08:10:01.896Z,91.02
2023-01-22T08:15:03.348Z,90.56
2023-01-22T08:20:05.920Z,90.35
2023-01-22T08:25:07.388Z,91.23
2023-01-22T08:30:11.103Z,90.40
2023-01-22T08:35:13.111Z,90.65
2023-01-22T08:40:14.867Z,91.47
2023-01-22T08:45:16.219Z,90.85
2023-01-22T08:50:17.963Z,91.31
2023-01-22T08:55:19.472Z,90.95
2023-01-22T09:00:21.280Z,90.64
2023-01-22T09:05:22.649Z,90.49
2023-01-22T09:10:24.471Z,90.34
2023-01-22T09:15:26.182Z,90.58
2023-01-22T09:20:27.825Z,90.59
2023-01-22T09:25:30.367Z,90.60
2023-01-22T09:30:32.187Z,90.80
2023-01-22T09:35:33.580Z,90.20
2023-01-22T09:41:02.292Z,89.94
2023-01-22T09:46:05.891Z,89.81
2023-01-22T09:51:07.393Z,89.96
2023-01-22T09:56:14.595Z,89.94
2023-01-22T10:01:16.981Z,90.63
2023-01-22T10:06:21.373Z,90.60
2023-01-22T10:11:22.822Z,90.63
2023-01-22T10:16:24.194Z,89.96
2023-01-22T10:21:27.067Z,90.08
2023-01-22T10:26:34.532Z,89.95
2023-01-22T10:31:37.839Z,90.31
2023-01-22T10:36:39.355Z,89.88
2023-01-22T10:41:41.028Z,89.95
2023-01-22T10:46:42.392Z,90.38
2023-01-22T10:51:52.416Z,90.52
2023-01-22T10:57:03.044Z,91.06
2023-01-22T11:02:18.002Z,90.81
2023-01-22T11:07:32.835Z,90.28
2023-01-22T11:12:36.604Z,90.97
2023-01-22T11:17:39.138Z,90.97
2023-01-22T11:22:43.128Z,91.31
2023-01-22T11:27:54.748Z,91.38
2023-01-22T11:33:05.056Z,90.51
2023-01-22T11:38:06.362Z,90.91
2023-01-22T11:43:20.566Z,90.30
2023-01-22T11:48:34.113Z,90.54
2023-01-22T11:53:47.754Z,90.55
2023-01-22T11:58:49.324Z,90.60
2023-01-22T12:04:00.450Z,91.12
2023-01-22T12:09:14.002Z,90.80
2023-01-22T12:14:34.283Z,91.28
2023-01-22T12:19:50.469Z,91.30
2023-01-22T12:24:56.243Z,89.97
2023-01-22T12:30:01.584Z,89.84
2023-01-22T12:35:08.852Z,90.32
2023-01-22T12:40:25.557Z,90.41
2023-01-22T12:45:45.761Z,90.22
2023-01-22T12:50:55.084Z,90.31
2023-01-22T12:55:59.304Z,90.29
2023-01-22T13:01:10.038Z,89.80
2023-01-22T13:06:18.733Z,89.98
2023-01-22T13:11:33.692Z,89.71
2023-01-22T13:16:36.444Z,90.70
2023-01-22T13:21:37.824Z,90.74
2023-01-22T13:26:39.478Z,90.71
2023-01-22T13:31:40.862Z,90.90
2023-01-22T13:36:46.730Z,91.07
2023-01-22T13:41:50.298Z,90.46
2023-01-22T13:46:51.760Z,91.26
2023-01-22T13:51:54.704Z,91.03
2023-01-22T13:56:56.065Z,90.69
2023-01-22T14:01:57.429Z,90.56
2023-01-22T14:06:58.736Z,90.75
2023-01-22T14:12:00.564Z,91.10
2023-01-22T14:17:01.907Z,90.75
2023-01-22T14:22:03.253Z,90.73
2023-01-22T14:27:04.621Z,91.65
2023-01-22T14:32:06.261Z,90.88
2023-01-22T14:37:07.594Z,91.62
2023-01-22T14:42:09.200Z,91.49
2023-01-22T14:47:10.578Z,91.16
2023-01-22T14:52:11.917Z,91.55
2023-01-22T14:57:13.288Z,91.54
2023-01-22T15:02:14.654Z,91.31
2023-01-22T15:07:16.122Z,90.72
2023-01-22T15:12:17.512Z,90.40
2023-01-22T15:17:18.852Z,91.06
2023-01-22T15:22:20.333Z,91.39
2023-01-22T15:27:22.428Z,91.36
2023-01-22T15:32:23.844Z,91.10
2023-01-22T15:37:25.292Z,91.30
2023-01-22T15:42:26.735Z,90.81
2023-01-22T15:47:28.167Z,91.18
2023-01-22T15:52:29.491Z,91.58
2023-01-22T15:57:30.858Z,91.55
2023-01-22T16:02:32.236Z,92.22
2023-01-22T16:07:33.543Z,91.87
2023-01-22T16:12:34.908Z,91.62
2023-01-22T16:17:36.249Z,91.30
2023-01-22T16:22:37.578Z,91.51
2023-01-22T16:27:39.237Z,91.91
2023-01-22T16:32:45.947Z,91.41
2023-01-22T16:37:47.279Z,91.86
2023-01-22T16:42:57.295Z,91.97
2023-01-22T16:47:58.736Z,91.40
2023-01-22T16:53:00.270Z,92.50
2023-01-22T16:58:01.605Z,91.97
2023-01-22T17:03:03.072Z,92.26
2023-01-22T17:08:04.637Z,91.68
2023-01-22T17:13:06.531Z,91.10
2023-01-22T17:18:08.233Z,91.88
2023-01-22T17:23:10.625Z,91.53
2023-01-22T17:28:12.072Z,91.77
2023-01-22T17:38:19.973Z,92.45
2023-01-22T17:43:21.301Z,91.71
2023-01-22T17:48:22.685Z,92.17
2023-01-22T17:53:23.996Z,92.29
2023-01-22T17:58:25.439Z,92.00
2023-01-22T18:03:26.886Z,91.42
2023-01-22T18:08:29.448Z,92.31
2023-01-22T18:13:30.779Z,91.96
2023-01-22T18:18:32.193Z,92.32
2023-01-22T18:23:33.521Z,91.76
2023-01-22T18:28:35.152Z,91.69
2023-01-22T18:33:37.296Z,91.56
2023-01-22T18:38:39.351Z,92.02
2023-01-22T18:43:41.368Z,91.97
2023-01-22T18:48:43.006Z,91.84
2023-01-22T18:53:44.331Z,91.56
2023-01-22T18:58:46.338Z,92.04
2023-01-22T19:03:49.390Z,92.45
2023-01-22T19:08:56.923Z,92.14
2023-01-22T19:13:59.535Z,91.57
2023-01-22T19:19:10.870Z,91.93
2023-01-22T19:24:13.169Z,91.54
2023-01-22T19:29:17.064Z,92.31
2023-01-22T19:34:23.563Z,91.68
2023-01-22T19:39:25.411Z,91.33
2023-01-22T19:44:26.852Z,91.83
2023-01-22T19:49:28.753Z,91.39
2023-01-22T19:54:30.074Z,92.16
2023-01-22T19:59:31.453Z,91.75
2023-01-22T20:04:33.738Z,91.30
2023-01-22T20:09:35.637Z,91.41
2023-01-22T20:14:38.947Z,91.60
2023-01-22T20:19:42.023Z,90.91
2023-01-22T20:24:44.197Z,91.59
2023-01-22T20:29:46.308Z,90.88
2023-01-22T20:34:48.849Z,91.28
2023-01-22T20:39:50.183Z,91.20
2023-01-22T20:44:51.583Z,91.05
2023-01-22T20:49:52.921Z,91.30
2023-01-22T20:55:01.552Z,90.70
2023-01-22T21:00:04.728Z,91.67
2023-01-22T21:05:06.599Z,91.14
2023-01-22T21:10:08.528Z,91.43
2023-01-22T21:15:10.023Z,90.91
2023-01-22T21:20:12.026Z,91.27
2023-01-22T21:25:13.353Z,90.62
2023-01-22T21:30:14.795Z,91.54
2023-01-22T21:35:16.147Z,91.54
2023-01-22T21:40:20.895Z,91.42
2023-01-22T21:45:41.531Z,91.60
2023-01-22T21:50:43.384Z,91.36
2023-01-22T21:55:51.929Z,91.12
2023-01-22T22:00:54.695Z,90.79
2023-01-22T22:05:56.522Z,90.74
2023-01-22T22:10:57.904Z,90.84
2023-01-22T22:16:00.028Z,91.51
2023-01-22T22:21:03.200Z,91.02
2023-01-22T22:26:05.429Z,91.00
2023-01-22T22:31:11.697Z,90.95
2023-01-22T22:36:14.150Z,91.76
2023-01-22T22:41:22.932Z,91.77
2023-01-22T22:46:29.025Z,91.44
2023-01-22T22:51:31.856Z,91.39
2023-01-22T22:56:33.599Z,91.65
2023-01-22T23:01:37.543Z,91.04
2023-01-22T23:06:39.237Z,90.89
2023-01-22T23:11:43.532Z,90.94
2023-01-22T23:16:44.963Z,91.36
2023-01-22T23:21:48.878Z,91.00
2023-01-22T23:26:50.495Z,91.86
2023-01-22T23:31:53.694Z,91.65
2023-01-22T23:36:55.270Z,91.01
2023-01-22T23:41:56.577Z,91.86
2023-01-22T23:46:57.888Z,91.82
2023-01-22T23:51:59.472Z,91.44
2023-01-22T23:57:00.795Z,91.09
